createdAt,value
2023-01-09T00:00:22.162Z,100898.38
2023-01-09T00:02:49.194Z,100904.25
2023-01-09T00:05:17.162Z,100901.63
2023-01-09T00:07:44.639Z,100915.97
2023-01-09T00:10:12.054Z,100914.31
2023-01-09T00:12:39.466Z,100912.69
2023-01-09T00:15:06.811Z,100909.25
2023-01-09T00:17:34.167Z,100914.34
2023-01-09T00:20:01.217Z,100910.91
2023-01-09T00:22:29.611Z,100908.41
2023-01-09T00:24:56.563Z,100910.91
2023-01-09T00:27:23.536Z,100924.59
2023-01-09T00:29:50.532Z,100916.84
2023-01-09T00:32:17.538Z,100913.41
2023-01-09T00:34:44.707Z,100910.84
2023-01-09T00:37:14.583Z,100921.13
2023-01-09T00:39:42.368Z,100925.34
2023-01-09T00:42:16.087Z,100923.53
2023-01-09T00:44:57.282Z,100924.34
2023-01-09T00:47:29.523Z,100924.25
2023-01-09T00:49:59.255Z,100909.72
2023-01-09T00:52:26.303Z,100907.94
2023-01-09T00:54:53.579Z,100910.34
2023-01-09T00:57:20.668Z,100903.38
2023-01-09T00:59:49.204Z,100901.69
2023-01-09T01:02:16.279Z,100900.75
2023-01-09T01:05:01.948Z,100908.31
2023-01-09T01:07:39.421Z,100898.69
2023-01-09T01:10:08.003Z,100907.16
2023-01-09T01:12:35.017Z,100906.13
2023-01-09T01:15:01.976Z,100906.81
2023-01-09T01:17:29.403Z,100899.97
2023-01-09T01:19:56.708Z,100900.66
2023-01-09T01:22:23.756Z,100905.72
2023-01-09T01:24:50.781Z,100908.97
2023-01-09T01:27:17.784Z,100904.75
2023-01-09T01:29:44.694Z,100907.31
2023-01-09T01:32:12.026Z,100913.25
2023-01-09T01:34:39.088Z,100918.16
2023-01-09T01:37:06.229Z,100918.09
2023-01-09T01:39:36.459Z,100922.34
2023-01-09T01:42:04.374Z,100921.50
2023-01-09T01:44:50.094Z,100924.78
2023-01-09T01:47:18.267Z,100924.78
2023-01-09T01:49:45.596Z,100928.16
2023-01-09T01:52:12.826Z,100929.75
2023-01-09T01:54:40.006Z,100930.66
2023-01-09T01:57:07.281Z,100931.47
2023-01-09T01:59:38.553Z,100929.75
2023-01-09T02:02:05.915Z,100933.13
2023-01-09T02:04:34.379Z,100928.81
2023-01-09T02:07:03.214Z,100935.44
2023-01-09T02:09:33.050Z,100933.72
2023-01-09T02:12:19.182Z,100934.50
2023-01-09T02:14:47.972Z,100934.41
2023-01-09T02:17:53.619Z,100936.78
2023-01-09T02:20:41.713Z,100930.91
2023-01-09T02:23:14.659Z,100933.47
2023-01-09T02:26:10.507Z,100938.50
2023-01-09T02:28:46.269Z,100941.97
2023-01-09T02:31:22.500Z,100940.28
2023-01-09T02:33:49.927Z,100939.50
2023-01-09T02:36:32.097Z,100942.75
2023-01-09T02:39:07.210Z,100947.03
2023-01-09T02:41:43.140Z,100945.22
2023-01-09T02:44:12.921Z,100948.59
2023-01-09T02:46:39.987Z,100947.50
2023-01-09T02:49:07.863Z,100950.75
2023-01-09T02:51:39.862Z,100948.81
2023-01-09T02:54:20.794Z,100947.03
2023-01-09T02:56:50.430Z,100949.66
2023-01-09T02:59:21.374Z,100955.53
2023-01-09T03:02:03.492Z,100957.38
2023-01-09T03:04:49.571Z,100961.72
2023-01-09T03:07:23.367Z,100964.28
2023-01-09T03:09:52.576Z,100957.56
2023-01-09T03:12:22.395Z,100966.19
2023-01-09T03:14:51.328Z,100960.13
2023-01-09T03:17:35.737Z,100960.13
2023-01-09T03:20:04.531Z,100961.72
2023-01-09T03:22:31.493Z,100959.91
2023-01-09T03:24:58.645Z,100959.06
2023-01-09T03:27:25.675Z,100964.25
2023-01-09T03:29:53.542Z,100966.13
2023-01-09T03:32:20.563Z,100975.59
2023-01-09T03:34:47.461Z,100967.72
2023-01-09T03:37:14.606Z,100971.22
2023-01-09T03:39:41.627Z,100970.44
2023-01-09T03:42:08.585Z,100971.22
2023-01-09T03:44:35.525Z,100977.41
2023-01-09T03:47:02.509Z,100979.94
2023-01-09T03:49:29.886Z,100974.75
2023-01-09T03:51:56.862Z,100970.63
2023-01-09T03:54:23.838Z,100985.16
2023-01-09T03:56:51.178Z,100983.44
2023-01-09T03:59:18.082Z,100987.72
2023-01-09T04:01:45.802Z,100974.09
2023-01-09T04:04:12.937Z,100982.38
2023-01-09T04:06:39.956Z,100983.16
2023-01-09T04:09:09.955Z,100984.84
2023-01-09T04:11:36.881Z,100984.94
2023-01-09T04:14:04.016Z,100985.00
2023-01-09T04:16:31.149Z,100982.31
2023-01-09T04:18:58.139Z,100985.66
2023-01-09T04:21:25.252Z,100983.88
2023-01-09T04:23:52.270Z,100993.28
2023-01-09T04:26:19.365Z,100992.31
2023-01-09T04:28:46.445Z,100998.91
2023-01-09T04:31:13.557Z,101000.63
2023-01-09T04:33:40.558Z,101002.44
2023-01-09T04:36:07.797Z,101002.59
2023-01-09T04:38:34.806Z,101002.72
2023-01-09T04:41:01.834Z,101020.66
2023-01-09T04:43:29.441Z,101003.53
2023-01-09T04:45:56.941Z,101008.59
2023-01-09T04:48:24.622Z,101015.34
2023-01-09T04:50:51.772Z,101013.75
2023-01-09T04:53:18.746Z,101025.75
2023-01-09T04:55:45.951Z,101023.94
2023-01-09T04:58:12.962Z,101022.13
2023-01-09T05:00:40.047Z,101032.25
2023-01-09T05:03:07.168Z,101030.53
2023-01-09T05:05:34.192Z,101035.75
2023-01-09T05:08:01.197Z,101029.91
2023-01-09T05:10:28.553Z,101020.44
2023-01-09T05:12:56.039Z,101033.34
2023-01-09T05:15:23.151Z,101025.88
2023-01-09T05:17:50.199Z,101034.50
2023-01-09T05:20:17.250Z,101031.97
2023-01-09T05:22:44.359Z,101035.47
2023-01-09T05:25:11.305Z,101039.53
2023-01-09T05:27:39.770Z,101024.19
2023-01-09T05:30:07.014Z,101042.31
2023-01-09T05:32:38.477Z,101039.72
2023-01-09T05:35:06.108Z,101046.38
2023-01-09T05:37:33.323Z,101049.63
2023-01-09T05:40:00.490Z,101043.03
2023-01-09T05:42:27.601Z,101050.91
2023-01-09T05:44:54.620Z,101053.47
2023-01-09T05:47:21.591Z,101046.56
2023-01-09T05:49:48.639Z,101056.91
2023-01-09T05:52:15.996Z,101061.31
2023-01-09T05:54:43.172Z,101057.22
2023-01-09T05:57:10.141Z,101063.75
2023-01-09T05:59:37.171Z,101063.94
2023-01-09T06:02:04.178Z,101067.50
2023-01-09T06:04:31.287Z,101067.50
2023-01-09T06:06:58.441Z,101069.31
2023-01-09T06:09:26.142Z,101067.47
2023-01-09T06:11:55.073Z,101068.03
2023-01-09T06:14:22.494Z,101069.00
2023-01-09T06:16:49.753Z,101066.44
2023-01-09T06:19:16.786Z,101074.22
2023-01-09T06:21:44.024Z,101073.44
2023-01-09T06:24:11.076Z,101071.91
2023-01-09T06:26:38.010Z,101087.47
2023-01-09T06:29:05.369Z,101083.38
2023-01-09T06:31:32.489Z,101082.53
2023-01-09T06:34:00.039Z,101087.75
2023-01-09T06:36:27.028Z,101086.06
2023-01-09T06:38:53.947Z,101076.53
2023-01-09T06:41:21.479Z,101087.56
2023-01-09T06:43:48.522Z,101089.28
2023-01-09T06:46:15.521Z,101089.13
2023-01-09T06:48:42.491Z,101082.31
2023-01-09T06:51:09.419Z,101089.03
2023-01-09T06:53:36.499Z,101093.22
2023-01-09T06:56:03.836Z,101102.69
2023-01-09T06:58:32.452Z,101109.66
2023-01-09T07:01:01.903Z,101115.84
2023-01-09T07:03:29.002Z,101110.72
2023-01-09T07:05:56.116Z,101112.50
2023-01-09T07:08:23.213Z,101109.28
2023-01-09T07:10:50.096Z,101111.06
2023-01-09T07:13:17.206Z,101118.13
2023-01-09T07:15:44.373Z,101111.84
2023-01-09T07:18:11.503Z,101118.56
2023-01-09T07:20:39.920Z,101124.34
2023-01-09T07:23:06.867Z,101127.00
2023-01-09T07:25:33.879Z,101125.47
2023-01-09T07:28:01.143Z,101119.56
2023-01-09T07:30:28.242Z,101124.69
2023-01-09T07:32:55.146Z,101109.13
2023-01-09T07:35:22.034Z,101132.25
2023-01-09T07:37:49.262Z,101126.28
2023-01-09T07:40:16.236Z,101129.44
2023-01-09T07:42:43.243Z,101120.81
2023-01-09T07:45:10.430Z,101132.47
2023-01-09T07:47:37.391Z,101126.31
2023-01-09T07:50:04.540Z,101130.38
2023-01-09T07:52:31.600Z,101140.38
2023-01-09T07:54:59.104Z,101142.81
2023-01-09T07:57:26.210Z,101144.38
2023-01-09T07:59:53.423Z,101141.59
2023-01-09T08:02:20.614Z,101143.22
2023-01-09T08:04:48.777Z,101147.41
2023-01-09T08:09:57.559Z,101135.78
2023-01-09T08:12:27.249Z,101134.94
2023-01-09T08:14:56.631Z,101140.16
2023-01-09T08:17:33.057Z,101144.38
2023-01-09T08:20:02.305Z,101141.84
2023-01-09T08:22:32.463Z,101142.75
2023-01-09T08:24:59.513Z,101134.44
2023-01-09T08:27:37.146Z,101145.59
2023-01-09T08:30:06.208Z,101141.38
2023-01-09T08:32:34.348Z,101140.25
2023-01-09T08:35:02.822Z,101142.69
2023-01-09T08:37:30.473Z,101144.94
2023-01-09T08:39:57.972Z,101151.59
2023-01-09T08:42:44.352Z,101142.28
2023-01-09T08:45:40.763Z,101142.34
2023-01-09T08:48:13.307Z,101140.00
2023-01-09T08:53:22.546Z,101148.72
2023-01-09T09:01:30.511Z,101147.28
2023-01-09T09:03:58.100Z,101141.09
2023-01-09T09:20:14.835Z,101140.63
2023-01-09T09:22:43.206Z,101129.53
2023-01-09T09:25:17.595Z,101132.94
2023-01-09T09:27:48.361Z,101128.72
2023-01-09T09:30:17.851Z,101124.34
2023-01-09T09:32:55.496Z,101134.44
2023-01-09T09:35:22.840Z,101126.06
2023-01-09T09:44:16.932Z,101133.91
2023-01-09T09:49:42.366Z,101146.53
2023-01-09T09:52:32.025Z,101138.31
2023-01-09T09:55:05.536Z,101139.03
2023-01-09T09:57:46.652Z,101137.41
2023-01-09T10:00:26.699Z,101144.63
2023-01-09T10:05:41.471Z,101139.44
2023-01-09T10:11:21.516Z,101139.28
2023-01-09T10:22:45.727Z,101145.38
2023-01-09T10:34:07.992Z,101144.44
2023-01-09T10:39:24.512Z,101153.28
2023-01-09T10:44:44.348Z,101147.69
2023-01-09T10:52:44.872Z,101152.06
2023-01-09T10:58:24.837Z,101161.38
2023-01-09T11:03:35.574Z,101158.88
2023-01-09T11:20:15.373Z,101166.78
2023-01-09T11:25:28.350Z,101162.56
2023-01-09T11:28:01.476Z,101165.97
2023-01-09T11:30:30.681Z,101163.44
2023-01-09T11:32:58.157Z,101166.72
2023-01-09T11:35:27.638Z,101172.88
2023-01-09T11:38:00.958Z,101167.84
2023-01-09T11:40:30.087Z,101174.06
2023-01-09T11:43:35.793Z,101174.13
2023-01-09T11:46:04.197Z,101180.75
2023-01-09T11:48:33.108Z,101180.50
2023-01-09T11:51:01.834Z,101166.78
2023-01-09T11:53:29.252Z,101161.59
2023-01-09T11:55:58.092Z,101171.47
2023-01-09T11:58:25.150Z,101166.56
2023-01-09T12:00:55.480Z,101160.69
2023-01-09T12:03:30.505Z,101162.34
2023-01-09T12:06:09.539Z,101148.75
2023-01-09T12:08:37.254Z,101164.84
2023-01-09T12:11:04.759Z,101164.16
2023-01-09T12:13:50.679Z,101170.03
2023-01-09T12:16:18.298Z,101171.59
2023-01-09T12:18:45.433Z,101175.84
2023-01-09T12:21:22.013Z,101163.25
2023-01-09T12:24:02.105Z,101163.94
2023-01-09T12:26:34.734Z,101174.94
2023-01-09T12:29:23.440Z,101174.97
2023-01-09T12:32:10.897Z,101172.56
2023-01-09T12:34:57.559Z,101171.06
2023-01-09T12:37:44.169Z,101165.94
2023-01-09T12:40:12.006Z,101165.00
2023-01-09T12:42:49.668Z,101171.56
2023-01-09T12:45:16.910Z,101162.69
2023-01-09T12:47:49.616Z,101164.06
2023-01-09T12:50:28.955Z,101172.31
2023-01-09T12:52:56.150Z,101162.78
2023-01-09T12:55:26.520Z,101173.91
2023-01-09T12:58:06.150Z,101175.34
2023-01-09T13:00:42.437Z,101170.91
2023-01-09T13:03:32.824Z,101187.72
2023-01-09T13:06:01.776Z,101183.34
2023-01-09T13:08:36.044Z,101183.31
2023-01-09T13:11:19.434Z,101187.44
2023-01-09T13:16:33.535Z,101204.56
2023-01-09T13:19:12.784Z,101207.09
2023-01-09T13:21:45.343Z,101202.94
2023-01-09T13:24:18.890Z,101206.25
2023-01-09T13:26:48.143Z,101206.22
2023-01-09T13:29:20.616Z,101211.31
2023-01-09T13:34:58.912Z,101212.13
2023-01-09T13:37:25.983Z,101211.31
2023-01-09T13:40:17.210Z,101213.94
2023-01-09T13:42:47.498Z,101218.25
2023-01-09T13:48:20.512Z,101219.16
2023-01-09T13:50:48.249Z,101222.63
2023-01-09T13:53:21.522Z,101224.16
2023-01-09T13:55:58.800Z,101231.03
2023-01-09T13:58:27.611Z,101221.66
2023-01-09T14:00:56.915Z,101221.66
2023-01-09T14:03:27.663Z,101221.69
2023-01-09T14:05:54.664Z,101215.81
2023-01-09T14:08:23.176Z,101227.66
2023-01-09T14:10:57.318Z,101225.91
2023-01-09T14:13:25.590Z,101228.28
2023-01-09T14:18:50.455Z,101228.41
2023-01-09T14:21:17.924Z,101225.91
2023-01-09T14:24:07.152Z,101225.13
2023-01-09T14:26:46.104Z,101215.72
2023-01-09T14:29:32.634Z,101217.22
2023-01-09T14:32:19.428Z,101215.50
2023-01-09T14:34:48.620Z,101222.34
2023-01-09T14:37:16.229Z,101222.16
2023-01-09T14:39:47.697Z,101229.00
2023-01-09T14:42:27.534Z,101230.66
2023-01-09T14:48:08.407Z,101236.03
2023-01-09T14:50:55.496Z,101230.75
2023-01-09T14:56:27.306Z,101238.22
2023-01-09T14:59:06.589Z,101235.00
2023-01-09T15:01:35.996Z,101238.22
2023-01-09T15:04:12.202Z,101235.59
2023-01-09T15:06:43.704Z,101239.09
2023-01-09T15:09:20.868Z,101250.13
2023-01-09T15:11:48.812Z,101247.47
2023-01-09T15:14:31.765Z,101240.78
2023-01-09T15:16:59.706Z,101241.59
2023-01-09T15:19:27.331Z,101240.44
2023-01-09T15:21:59.188Z,101240.28
2023-01-09T15:24:31.753Z,101254.66
2023-01-09T15:27:01.653Z,101242.75
2023-01-09T15:29:28.977Z,101236.59
2023-01-09T15:32:01.485Z,101231.47
2023-01-09T15:34:29.324Z,101244.09
2023-01-09T15:36:56.474Z,101242.44
2023-01-09T15:39:26.572Z,101249.25
2023-01-09T15:42:16.307Z,101233.81
2023-01-09T15:44:45.168Z,101227.94
2023-01-09T15:47:15.801Z,101211.75
2023-01-09T15:49:43.279Z,101227.84
2023-01-09T15:52:13.491Z,101228.63
2023-01-09T15:54:43.139Z,101230.34
2023-01-09T15:57:34.551Z,101228.53
2023-01-09T16:00:28.776Z,101229.50
2023-01-09T16:03:11.415Z,101228.63
2023-01-09T16:05:43.141Z,101231.34
2023-01-09T16:08:21.380Z,101233.91
2023-01-09T16:10:52.918Z,101234.81
2023-01-09T16:13:21.604Z,101243.31
2023-01-09T16:15:49.237Z,101245.84
2023-01-09T16:18:20.097Z,101255.31
2023-01-09T16:20:47.823Z,101261.13
2023-01-09T16:23:22.585Z,101256.00
2023-01-09T16:25:49.692Z,101272.19
2023-01-09T16:28:22.498Z,101263.69
2023-01-09T16:30:53.027Z,101267.16
2023-01-09T16:36:06.416Z,101275.50
2023-01-09T16:38:34.368Z,101277.78
2023-01-09T16:41:24.840Z,101271.91
2023-01-09T16:43:52.736Z,101261.47
2023-01-09T16:46:21.241Z,101270.19
2023-01-09T16:48:48.990Z,101269.28
2023-01-09T16:51:25.935Z,101278.44
2023-01-09T16:53:53.307Z,101269.97
2023-01-09T16:56:28.212Z,101274.06
2023-01-09T16:58:55.363Z,101270.41
2023-01-09T17:01:23.443Z,101273.03
2023-01-09T17:03:51.127Z,101269.66
2023-01-09T17:06:21.246Z,101264.84
2023-01-09T17:08:48.276Z,101266.41
2023-01-09T17:11:20.270Z,101262.94
2023-01-09T17:13:48.108Z,101255.09
2023-01-09T17:16:15.936Z,101262.53
2023-01-09T17:18:43.386Z,101254.94
2023-01-09T17:21:14.979Z,101263.31
2023-01-09T17:23:41.898Z,101257.28
2023-01-09T17:26:33.765Z,101259.06
2023-01-09T17:29:01.009Z,101254.53
2023-01-09T17:31:31.557Z,101243.94
2023-01-09T17:33:59.459Z,101254.94
2023-01-09T17:36:32.482Z,101262.25
2023-01-09T17:39:01.445Z,101269.97
2023-01-09T17:41:29.521Z,101269.34
2023-01-09T17:43:57.835Z,101267.88
2023-01-09T17:46:27.928Z,101273.94
2023-01-09T17:48:55.524Z,101266.19
2023-01-09T17:51:26.675Z,101271.25
2023-01-09T17:53:53.913Z,101244.63
2023-01-09T17:56:28.073Z,101272.28
2023-01-09T17:58:55.232Z,101272.22
2023-01-09T18:01:22.428Z,101273.91
2023-01-09T18:03:50.861Z,101276.25
2023-01-09T18:06:19.369Z,101263.69
2023-01-09T18:08:46.686Z,101267.00
2023-01-09T18:11:15.039Z,101278.09
2023-01-09T18:13:42.295Z,101283.00
2023-01-09T18:16:13.459Z,101279.78
2023-01-09T18:18:41.234Z,101288.34
2023-01-09T18:21:09.130Z,101293.59
2023-01-09T18:23:36.350Z,101292.59
2023-01-09T18:26:07.191Z,101294.09
2023-01-09T18:28:38.163Z,101292.38
2023-01-09T18:31:06.765Z,101288.97
2023-01-09T18:33:33.902Z,101292.25
2023-01-09T18:36:10.660Z,101294.00
2023-01-09T18:38:38.208Z,101287.66
2023-01-09T18:41:05.672Z,101293.75
2023-01-09T18:43:32.829Z,101287.66
2023-01-09T18:45:59.852Z,101286.06
2023-01-09T18:48:27.009Z,101277.25
2023-01-09T18:51:01.956Z,101279.91
2023-01-09T18:53:29.082Z,101283.34
2023-01-09T18:55:56.288Z,101278.16
2023-01-09T18:58:23.419Z,101273.22
2023-01-09T19:00:51.690Z,101271.13
2023-01-09T19:03:18.727Z,101288.34
2023-01-09T19:05:45.821Z,101280.50
2023-01-09T19:08:13.584Z,101284.75
2023-01-09T19:10:40.522Z,101288.47
2023-01-09T19:13:07.396Z,101289.38
2023-01-09T19:15:34.992Z,101295.47
2023-01-09T19:18:02.029Z,101293.59
2023-01-09T19:20:29.926Z,101289.47
2023-01-09T19:22:57.125Z,101297.97
2023-01-09T19:25:24.197Z,101290.25
2023-01-09T19:27:53.637Z,101288.59
2023-01-09T19:30:20.732Z,101280.63
2023-01-09T19:32:48.047Z,101279.81
2023-01-09T19:35:15.206Z,101281.19
2023-01-09T19:37:42.151Z,101276.28
2023-01-09T19:40:09.678Z,101276.81
2023-01-09T19:42:36.904Z,101277.84
2023-01-09T19:45:05.082Z,101280.50
2023-01-09T19:47:38.271Z,101288.16
2023-01-09T19:50:05.979Z,101284.03
2023-01-09T19:52:32.932Z,101290.59
2023-01-09T19:55:00.016Z,101291.56
2023-01-09T19:57:27.036Z,101291.34
2023-01-09T19:59:54.101Z,101277.03
2023-01-09T20:04:53.000Z,101294.03
2023-01-09T20:07:21.558Z,101283.75
2023-01-09T20:09:49.572Z,101297.28
2023-01-09T20:12:16.480Z,101296.56
2023-01-09T20:14:45.266Z,101298.97
2023-01-09T20:17:12.250Z,101292.09
2023-01-09T20:19:39.629Z,101300.78
2023-01-09T20:22:06.569Z,101289.06
2023-01-09T20:24:33.549Z,101278.94
2023-01-09T20:27:00.820Z,101290.81
2023-01-09T20:29:29.177Z,101285.41
2023-01-09T20:31:56.384Z,101274.34
2023-01-09T20:34:23.311Z,101285.78
2023-01-09T20:36:50.396Z,101297.75
2023-01-09T20:39:17.507Z,101309.59
2023-01-09T20:41:44.591Z,101312.09
2023-01-09T20:44:12.644Z,101304.06
2023-01-09T20:46:40.957Z,101296.50
2023-01-09T20:49:09.901Z,101295.81
2023-01-09T20:51:37.523Z,101305.84
2023-01-09T20:54:04.551Z,101309.03
2023-01-09T20:56:32.033Z,101319.81
2023-01-09T20:59:00.229Z,101311.59
2023-01-09T21:01:28.134Z,101317.59
2023-01-09T21:03:56.232Z,101320.97
2023-01-09T21:06:24.071Z,101319.41
2023-01-09T21:08:52.375Z,101325.41
2023-01-09T21:11:20.374Z,101325.38
2023-01-09T21:13:47.323Z,101317.88
2023-01-09T21:16:15.735Z,101315.88
2023-01-09T21:18:43.501Z,101313.22
2023-01-09T21:21:14.242Z,101310.56
2023-01-09T21:23:48.331Z,101303.66
2023-01-09T21:26:15.863Z,101301.91
2023-01-09T21:28:48.283Z,101290.19
2023-01-09T21:31:16.548Z,101296.06
2023-01-09T21:33:43.467Z,101298.53
2023-01-09T21:36:11.004Z,101307.13
2023-01-09T21:38:38.198Z,101313.72
2023-01-09T21:41:23.781Z,101316.72
2023-01-09T21:44:09.261Z,101323.47
2023-01-09T21:46:57.885Z,101331.81
2023-01-09T21:49:26.062Z,101330.28
2023-01-09T21:51:54.133Z,101322.69
2023-01-09T21:54:23.314Z,101324.47
2023-01-09T21:56:50.958Z,101319.19
2023-01-09T21:59:18.125Z,101321.19
2023-01-09T22:01:45.172Z,101314.88
2023-01-09T22:04:14.208Z,101324.31
2023-01-09T22:06:41.145Z,101331.31
2023-01-09T22:09:08.077Z,101344.03
2023-01-09T22:11:35.134Z,101344.41
2023-01-09T22:14:02.190Z,101347.56
2023-01-09T22:16:29.297Z,101352.94
2023-01-09T22:18:56.706Z,101363.94
2023-01-09T22:21:24.431Z,101349.34
2023-01-09T22:23:51.837Z,101346.06
2023-01-09T22:26:19.102Z,101333.13
2023-01-09T22:28:46.631Z,101328.78
2023-01-09T22:31:18.001Z,101337.38
2023-01-09T22:33:49.128Z,101338.75
2023-01-09T22:36:16.121Z,101328.44
2023-01-09T22:38:44.049Z,101332.88
2023-01-09T22:41:11.473Z,101335.03
2023-01-09T22:43:38.399Z,101334.34
2023-01-09T22:46:06.700Z,101339.63
2023-01-09T22:48:34.730Z,101324.09
2023-01-09T22:51:02.280Z,101320.63
2023-01-09T22:53:29.861Z,101331.81
2023-01-09T22:56:00.521Z,101320.31
2023-01-09T22:58:28.665Z,101320.44
2023-01-09T23:00:55.577Z,101317.72
2023-01-09T23:03:22.959Z,101304.00
2023-01-09T23:05:50.040Z,101310.25
2023-01-09T23:08:17.365Z,101320.56
2023-01-09T23:10:44.782Z,101328.44
2023-01-09T23:13:11.775Z,101335.53
2023-01-09T23:15:38.778Z,101333.75
2023-01-09T23:18:07.955Z,101331.16
2023-01-09T23:20:34.993Z,101327.19
2023-01-09T23:23:02.017Z,101322.94
2023-01-09T23:25:28.973Z,101312.75
2023-01-09T23:27:55.913Z,101321.94
2023-01-09T23:30:23.080Z,101326.28
2023-01-09T23:32:50.083Z,101308.72
2023-01-09T23:35:17.063Z,101312.94
2023-01-09T23:37:44.068Z,101312.94
2023-01-09T23:40:11.664Z,101323.03
2023-01-09T23:42:58.204Z,101331.63
2023-01-09T23:45:25.245Z,101309.69
2023-01-09T23:47:52.130Z,101302.72
2023-01-09T23:50:19.094Z,101309.78
2023-01-09T23:52:46.031Z,101320.31
2023-01-09T23:55:13.089Z,101320.31
2023-01-09T23:57:40.077Z,101309.53
